Time;durP1;ratioP1;P1;durP2;ratioP2;P2;SDS_P1;SDS_P2;PMS_P1;PMS_P2;Temp;Humidity;BMP_temperature;BMP_pressure;BME280_temperature;BME280_humidity;BME280_pressure;Samples;Min_cycle;Max_cycle;Signal;HPM_P1;HPM_P2
2021/11/29 00:00:13;;;;;;;75.00;12.60;;;;;;;;;;5051035;28;20666;-65
2021/11/29 00:02:40;;;;;;;76.43;14.20;;;;;;;;;;5050915;28;20213;-64
2021/11/29 00:05:08;;;;;;;71.80;11.68;;;;;;;;;;5051784;28;20212;-65
2021/11/29 00:07:35;;;;;;;75.13;13.27;;;;;;;;;;5054797;28;20206;-65
2021/11/29 00:10:05;;;;;;;74.10;12.90;;;;;;;;;;5054583;28;20234;-65
2021/11/29 00:12:32;;;;;;;70.28;10.70;;;;;;;;;;5054636;28;20220;-65
2021/11/29 00:14:59;;;;;;;75.15;12.60;;;;;;;;;;5054490;28;20205;-65
2021/11/29 00:17:27;;;;;;;72.90;12.75;;;;;;;;;;5054209;28;20212;-65
2021/11/29 00:19:54;;;;;;;72.90;12.52;;;;;;;;;;5054627;28;20336;-64
2021/11/29 00:22:22;;;;;;;78.53;13.25;;;;;;;;;;5054605;28;20202;-65
2021/11/29 00:24:49;;;;;;;72.57;13.05;;;;;;;;;;5054483;28;20235;-65
2021/11/29 00:27:16;;;;;;;73.30;13.20;;;;;;;;;;5052479;28;20237;-66
2021/11/29 00:29:44;;;;;;;70.40;12.20;;;;;;;;;;5054556;28;20229;-65
2021/11/29 00:32:11;;;;;;;74.40;13.07;;;;;;;;;;5054448;28;20212;-65
2021/11/29 00:34:40;;;;;;;74.45;12.60;;;;;;;;;;5054428;28;20208;-65
2021/11/29 00:37:07;;;;;;;76.47;13.63;;;;;;;;;;5054080;28;20206;-65
2021/11/29 00:39:35;;;;;;;72.47;12.68;;;;;;;;;;5054094;28;20218;-66
2021/11/29 00:42:02;;;;;;;72.82;12.02;;;;;;;;;;5054041;28;20673;-65
2021/11/29 00:44:29;;;;;;;72.75;13.20;;;;;;;;;;5054292;28;20296;-65
2021/11/29 00:46:56;;;;;;;74.35;13.60;;;;;;;;;;5054425;28;20209;-66
2021/11/29 00:49:23;;;;;;;74.45;12.70;;;;;;;;;;5053709;28;20230;-65
2021/11/29 00:51:52;;;;;;;75.18;13.60;;;;;;;;;;5053947;28;20213;-66
2021/11/29 00:54:19;;;;;;;75.93;13.10;;;;;;;;;;5053930;28;20201;-66
2021/11/29 00:56:46;;;;;;;71.38;14.07;;;;;;;;;;5053721;28;20685;-66
2021/11/29 00:59:13;;;;;;;77.45;14.85;;;;;;;;;;5058552;28;20229;-66
2021/11/29 01:01:40;;;;;;;75.40;14.07;;;;;;;;;;5073640;28;20676;-65
2021/11/29 01:04:07;;;;;;;73.95;14.45;;;;;;;;;;5073817;28;20216;-66
2021/11/29 01:06:34;;;;;;;76.60;14.27;;;;;;;;;;5073724;28;20205;-65
2021/11/29 01:09:03;;;;;;;76.50;14.90;;;;;;;;;;5073050;28;20227;-65
2021/11/29 01:11:31;;;;;;;75.47;14.70;;;;;;;;;;5073612;28;20585;-65
2021/11/29 01:13:58;;;;;;;77.93;15.85;;;;;;;;;;5073750;28;20208;-66
2021/11/29 01:16:25;;;;;;;77.15;14.60;;;;;;;;;;5073241;28;20212;-66
2021/11/29 01:18:52;;;;;;;74.20;14.82;;;;;;;;;;5073234;28;20291;-65
2021/11/29 01:21:20;;;;;;;76.25;15.55;;;;;;;;;;5073343;28;20201;-65
2021/11/29 01:23:47;;;;;;;76.50;14.93;;;;;;;;;;5073274;28;20209;-66
2021/11/29 01:26:15;;;;;;;72.65;13.02;;;;;;;;;;5073187;28;20691;-65
2021/11/29 01:28:42;;;;;;;76.72;16.10;;;;;;;;;;5073076;28;20229;-65
2021/11/29 01:31:10;;;;;;;80.93;14.70;;;;;;;;;;5070897;28;20225;-66
2021/11/29 01:33:37;;;;;;;74.68;13.93;;;;;;;;;;5073626;28;20254;-65
2021/11/29 01:36:05;;;;;;;75.90;15.98;;;;;;;;;;5072831;28;20215;-65
2021/11/29 01:38:32;;;;;;;76.07;14.85;;;;;;;;;;5072926;28;20592;-65
2021/11/29 01:40:59;;;;;;;77.90;14.90;;;;;;;;;;5073149;28;20197;-66
2021/11/29 01:43:28;;;;;;;77.57;15.70;;;;;;;;;;5072984;28;20703;-66
2021/11/29 01:45:56;;;;;;;78.20;15.27;;;;;;;;;;5073097;28;20208;-65
2021/11/29 01:48:24;;;;;;;74.75;14.88;;;;;;;;;;5072476;28;20743;-65
2021/11/29 01:50:52;;;;;;;75.55;14.15;;;;;;;;;;5072526;28;20316;-65
2021/11/29 01:53:20;;;;;;;78.95;16.05;;;;;;;;;;5072956;28;20209;-65
2021/11/29 01:55:48;;;;;;;75.13;14.40;;;;;;;;;;5072587;28;20212;-65
2021/11/29 01:58:15;;;;;;;73.07;14.35;;;;;;;;;;5072401;28;20221;-65
2021/11/29 02:00:47;;;;;;;76.88;14.63;;;;;;;;;;5072772;28;20208;-66
2021/11/29 02:03:14;;;;;;;78.78;15.00;;;;;;;;;;5072149;28;20201;-64
2021/11/29 02:05:42;;;;;;;74.90;16.05;;;;;;;;;;5072490;28;20212;-65
2021/11/29 02:08:09;;;;;;;73.72;13.35;;;;;;;;;;5065078;28;20247;-66
2021/11/29 02:10:36;;;;;;;75.95;14.60;;;;;;;;;;5052739;28;20237;-64
2021/11/29 02:13:04;;;;;;;73.85;14.02;;;;;;;;;;5052329;28;20685;-65
2021/11/29 02:15:31;;;;;;;76.20;14.80;;;;;;;;;;5052304;28;20677;-65
2021/11/29 02:17:59;;;;;;;77.90;17.02;;;;;;;;;;5051806;28;20206;-65
2021/11/29 02:20:31;;;;;;;78.07;14.68;;;;;;;;;;5052561;28;20204;-65
2021/11/29 02:22:58;;;;;;;77.93;16.08;;;;;;;;;;5052309;28;20205;-64
2021/11/29 02:25:25;;;;;;;75.28;14.90;;;;;;;;;;5052084;28;20205;-65
2021/11/29 02:27:53;;;;;;;79.88;15.43;;;;;;;;;;5051315;28;20216;-65
2021/11/29 02:30:22;;;;;;;74.68;15.02;;;;;;;;;;5051816;28;20704;-65
2021/11/29 02:32:49;;;;;;;76.80;15.02;;;;;;;;;;5052271;28;20207;-65
2021/11/29 02:35:16;;;;;;;76.90;15.32;;;;;;;;;;5052194;28;20484;-65
2021/11/29 02:37:45;;;;;;;77.43;16.75;;;;;;;;;;5051837;28;20213;-65
2021/11/29 02:40:12;;;;;;;75.05;14.32;;;;;;;;;;5057655;28;20201;-66
2021/11/29 02:42:39;;;;;;;79.50;15.93;;;;;;;;;;5072047;28;20211;-65
2021/11/29 02:45:07;;;;;;;77.82;15.43;;;;;;;;;;5071562;28;20212;-65
2021/11/29 02:47:34;;;;;;;82.10;16.70;;;;;;;;;;5071822;28;20209;-66
2021/11/29 02:50:01;;;;;;;78.90;16.48;;;;;;;;;;5071766;28;20225;-66
2021/11/29 02:55:10;;;;;;;79.57;16.92;;;;;;;;;;5028443;28;20679;-65
2021/11/29 02:57:38;;;;;;;81.65;17.10;;;;;;;;;;5029329;28;20606;-64
2021/11/29 03:00:06;;;;;;;83.30;19.90;;;;;;;;;;5029361;28;20392;-65
2021/11/29 03:02:33;;;;;;;82.70;17.20;;;;;;;;;;5029369;28;20599;-64
2021/11/29 03:05:01;;;;;;;79.95;15.48;;;;;;;;;;5029388;28;20211;-65
2021/11/29 03:07:28;;;;;;;80.88;16.80;;;;;;;;;;5029002;28;20301;-65
2021/11/29 03:09:55;;;;;;;84.35;16.52;;;;;;;;;;5028964;28;20571;-64
2021/11/29 03:12:24;;;;;;;82.93;17.13;;;;;;;;;;5017343;28;20214;-65
2021/11/29 03:14:51;;;;;;;83.53;16.85;;;;;;;;;;5009516;28;20219;-66
2021/11/29 03:17:18;;;;;;;77.85;16.23;;;;;;;;;;5009304;28;20217;-65
2021/11/29 03:19:47;;;;;;;80.20;18.30;;;;;;;;;;5009499;28;20753;-66
2021/11/29 03:22:14;;;;;;;80.70;18.45;;;;;;;;;;5009573;28;20203;-65
2021/11/29 03:24:45;;;;;;;81.18;17.35;;;;;;;;;;5009459;28;20203;-65
2021/11/29 03:27:12;;;;;;;83.38;15.40;;;;;;;;;;5050374;28;20213;-65
2021/11/29 03:29:41;;;;;;;77.90;15.95;;;;;;;;;;5051463;28;20633;-65
2021/11/29 03:32:10;;;;;;;85.13;18.50;;;;;;;;;;5051215;28;20712;-65
2021/11/29 03:34:37;;;;;;;78.88;16.42;;;;;;;;;;5051194;28;20296;-66
2021/11/29 03:37:05;;;;;;;82.20;16.98;;;;;;;;;;5051054;28;20673;-64
2021/11/29 03:39:32;;;;;;;84.18;19.55;;;;;;;;;;5052550;28;20225;-65
2021/11/29 03:42:04;;;;;;;84.05;18.15;;;;;;;;;;5054967;28;20202;-65
2021/11/29 03:44:31;;;;;;;81.72;17.95;;;;;;;;;;5053958;28;20209;-65
2021/11/29 03:46:59;;;;;;;82.47;18.45;;;;;;;;;;5054753;28;20205;-65
2021/11/29 03:49:27;;;;;;;84.07;19.15;;;;;;;;;;5055007;28;20228;-64
2021/11/29 03:51:55;;;;;;;85.20;19.90;;;;;;;;;;5055247;28;20230;-64
2021/11/29 03:54:22;;;;;;;86.90;20.08;;;;;;;;;;5055286;28;20288;-65
2021/11/29 03:56:49;;;;;;;88.63;19.08;;;;;;;;;;5054911;28;20208;-65
2021/11/29 03:59:17;;;;;;;81.55;18.58;;;;;;;;;;5054607;28;20229;-64
2021/11/29 04:01:44;;;;;;;87.03;20.48;;;;;;;;;;5054696;28;20288;-66
2021/11/29 04:04:13;;;;;;;93.65;21.30;;;;;;;;;;5055048;28;20209;-65
2021/11/29 04:06:40;;;;;;;86.57;21.90;;;;;;;;;;5054926;28;20205;-66
2021/11/29 04:09:07;;;;;;;87.25;21.63;;;;;;;;;;5054408;28;20242;-66
2021/11/29 04:11:34;;;;;;;83.15;17.95;;;;;;;;;;5054781;28;20218;-65
2021/11/29 04:14:01;;;;;;;87.30;20.58;;;;;;;;;;5054411;28;20205;-65
2021/11/29 04:16:28;;;;;;;80.82;18.42;;;;;;;;;;5064859;28;20204;-66
2021/11/29 04:18:57;;;;;;;86.03;21.75;;;;;;;;;;5074337;28;20225;-66
2021/11/29 04:21:25;;;;;;;84.15;21.15;;;;;;;;;;5074701;28;20197;-66
2021/11/29 04:23:53;;;;;;;85.30;19.83;;;;;;;;;;5074594;28;20299;-66
2021/11/29 04:26:20;;;;;;;83.47;19.55;;;;;;;;;;5074392;28;20211;-65
2021/11/29 04:28:49;;;;;;;83.35;19.15;;;;;;;;;;5073993;28;20235;-65
2021/11/29 04:31:17;;;;;;;82.68;18.77;;;;;;;;;;5074462;28;20270;-66
2021/11/29 04:33:44;;;;;;;83.65;20.15;;;;;;;;;;5074591;28;20258;-65
2021/11/29 04:36:11;;;;;;;83.85;19.33;;;;;;;;;;5074410;28;20606;-65
2021/11/29 04:38:39;;;;;;;82.15;18.98;;;;;;;;;;5073891;28;20727;-65
2021/11/29 04:41:08;;;;;;;82.25;18.23;;;;;;;;;;5074089;28;20196;-65
2021/11/29 04:43:35;;;;;;;86.28;17.88;;;;;;;;;;5074199;28;20201;-66
2021/11/29 04:46:02;;;;;;;82.50;17.60;;;;;;;;;;5074119;28;20209;-65
2021/11/29 04:48:29;;;;;;;84.80;17.75;;;;;;;;;;5053964;28;20230;-65
2021/11/29 04:50:56;;;;;;;78.68;17.27;;;;;;;;;;5053334;28;20222;-66
2021/11/29 04:53:23;;;;;;;88.80;18.17;;;;;;;;;;5053939;28;20248;-66
2021/11/29 04:55:52;;;;;;;80.35;17.05;;;;;;;;;;5053800;28;20212;-65
2021/11/29 04:58:19;;;;;;;79.13;17.50;;;;;;;;;;5053687;28;20221;-66
2021/11/29 05:00:51;;;;;;;83.95;18.80;;;;;;;;;;5053661;28;20209;-66
2021/11/29 05:03:18;;;;;;;81.15;16.48;;;;;;;;;;5053910;28;20577;-64
2021/11/29 05:05:45;;;;;;;82.45;17.80;;;;;;;;;;5053727;28;20208;-66
2021/11/29 05:08:12;;;;;;;79.85;15.95;;;;;;;;;;5053213;28;20236;-65
2021/11/29 05:10:39;;;;;;;78.93;14.95;;;;;;;;;;5053795;28;20217;-66
2021/11/29 05:13:09;;;;;;;80.18;17.40;;;;;;;;;;5053752;28;20205;-65
2021/11/29 05:15:36;;;;;;;79.50;16.65;;;;;;;;;;5053541;28;20210;-65
2021/11/29 05:18:03;;;;;;;80.13;17.13;;;;;;;;;;5054846;28;20241;-66
2021/11/29 05:20:30;;;;;;;81.65;16.38;;;;;;;;;;5073534;28;20209;-65
2021/11/29 05:22:57;;;;;;;82.82;17.70;;;;;;;;;;5073242;28;20205;-65
2021/11/29 05:25:24;;;;;;;77.38;15.73;;;;;;;;;;5073601;28;20204;-66
2021/11/29 05:27:51;;;;;;;82.88;17.10;;;;;;;;;;5073170;28;20564;-66
2021/11/29 05:30:20;;;;;;;79.75;16.73;;;;;;;;;;5073365;28;20522;-66
2021/11/29 05:32:48;;;;;;;79.72;15.80;;;;;;;;;;5073268;28;20232;-65
2021/11/29 05:35:15;;;;;;;82.55;16.83;;;;;;;;;;5073439;28;20208;-65
2021/11/29 05:37:42;;;;;;;83.60;17.48;;;;;;;;;;5072990;28;20639;-65
2021/11/29 05:40:10;;;;;;;77.15;15.70;;;;;;;;;;5072995;28;20691;-65
2021/11/29 05:42:37;;;;;;;81.72;16.65;;;;;;;;;;5073249;28;20201;-65
2021/11/29 05:45:05;;;;;;;76.45;15.07;;;;;;;;;;5072817;28;20208;-66
2021/11/29 05:47:33;;;;;;;79.70;15.70;;;;;;;;;;5072728;28;20205;-66
2021/11/29 05:50:00;;;;;;;85.63;18.88;;;;;;;;;;5062035;28;20229;-66
2021/11/29 05:52:27;;;;;;;77.97;16.00;;;;;;;;;;5053146;28;20709;-64
2021/11/29 05:54:54;;;;;;;79.28;16.77;;;;;;;;;;5052900;28;20216;-66
2021/11/29 05:57:22;;;;;;;78.35;15.68;;;;;;;;;;5052656;28;20589;-65
2021/11/29 05:59:49;;;;;;;79.45;15.88;;;;;;;;;;5052593;28;20236;-66
2021/11/29 06:05:23;;;;;;;78.15;15.30;;;;;;;;;;5050777;28;20243;-66
2021/11/29 06:07:50;;;;;;;81.88;16.23;;;;;;;;;;5052262;28;20616;-66
2021/11/29 06:10:17;;;;;;;80.88;17.10;;;;;;;;;;5052321;28;20312;-65
2021/11/29 06:12:46;;;;;;;81.40;16.30;;;;;;;;;;5052578;28;20232;-65
2021/11/29 06:15:13;;;;;;;82.72;16.30;;;;;;;;;;5052507;28;20677;-65
2021/11/29 06:17:41;;;;;;;82.90;16.60;;;;;;;;;;5052225;28;20205;-66
2021/11/29 06:20:09;;;;;;;80.35;16.73;;;;;;;;;;5052208;28;20566;-66
2021/11/29 06:22:37;;;;;;;79.10;16.88;;;;;;;;;;5066744;28;20200;-66
2021/11/29 06:25:05;;;;;;;81.85;15.75;;;;;;;;;;5072615;28;20212;-65
2021/11/29 06:27:32;;;;;;;82.82;16.45;;;;;;;;;;5072118;28;20244;-65
2021/11/29 06:29:59;;;;;;;80.18;15.00;;;;;;;;;;5072505;28;20221;-66
2021/11/29 06:32:26;;;;;;;78.85;16.10;;;;;;;;;;5072111;28;20429;-65
2021/11/29 06:34:54;;;;;;;79.10;15.05;;;;;;;;;;5072056;28;20201;-66
2021/11/29 06:37:21;;;;;;;79.47;15.60;;;;;;;;;;5071607;28;20584;-65
2021/11/29 06:39:49;;;;;;;78.53;16.33;;;;;;;;;;5072121;28;20232;-66
2021/11/29 06:42:17;;;;;;;82.07;16.02;;;;;;;;;;5072105;28;20452;-66
2021/11/29 06:44:44;;;;;;;89.07;15.25;;;;;;;;;;5071914;28;20200;-66
2021/11/29 06:47:11;;;;;;;79.05;15.40;;;;;;;;;;5071573;28;20739;-65
2021/11/29 06:49:38;;;;;;;80.10;14.70;;;;;;;;;;5071713;28;20239;-66
2021/11/29 06:52:06;;;;;;;73.43;12.60;;;;;;;;;;5071999;28;20225;-65
2021/11/29 06:54:36;;;;;;;83.43;16.10;;;;;;;;;;5069853;28;20914;-65
2021/11/29 06:57:05;;;;;;;76.75;13.23;;;;;;;;;;5071934;28;20207;-66
2021/11/29 06:59:32;;;;;;;81.50;13.85;;;;;;;;;;5071535;28;20229;-66
2021/11/29 07:02:26;;;;;;;75.70;13.90;;;;;;;;;;5071638;28;20209;-64
2021/11/29 07:04:54;;;;;;;73.95;14.13;;;;;;;;;;5050260;28;20293;-66
2021/11/29 07:07:21;;;;;;;74.28;12.60;;;;;;;;;;5051371;28;20205;-66
2021/11/29 07:09:48;;;;;;;79.85;14.73;;;;;;;;;;5051728;28;20229;-65
2021/11/29 07:12:16;;;;;;;78.53;15.15;;;;;;;;;;5051615;28;20248;-66
2021/11/29 07:14:44;;;;;;;75.53;13.73;;;;;;;;;;5051294;28;20228;-65
2021/11/29 07:17:11;;;;;;;80.80;14.73;;;;;;;;;;5051085;28;20216;-66
2021/11/29 07:19:38;;;;;;;84.43;15.80;;;;;;;;;;5051683;28;20225;-65
2021/11/29 07:22:06;;;;;;;78.28;14.32;;;;;;;;;;5051677;28;20197;-65
2021/11/29 07:24:33;;;;;;;76.32;13.90;;;;;;;;;;5050460;28;20205;-65
2021/11/29 07:27:00;;;;;;;75.25;13.68;;;;;;;;;;5051213;28;20209;-66
2021/11/29 07:29:29;;;;;;;75.43;12.90;;;;;;;;;;5051237;28;20221;-66
2021/11/29 07:31:56;;;;;;;73.40;13.57;;;;;;;;;;5051229;28;20228;-65
2021/11/29 07:34:23;;;;;;;76.15;12.40;;;;;;;;;;5051852;28;20584;-64
2021/11/29 07:36:50;;;;;;;78.28;13.80;;;;;;;;;;5051567;28;20205;-65
2021/11/29 07:39:17;;;;;;;75.25;12.45;;;;;;;;;;5051227;28;20227;-66
2021/11/29 07:41:44;;;;;;;75.68;11.98;;;;;;;;;;5051517;28;20202;-66
2021/11/29 07:44:11;;;;;;;75.30;13.32;;;;;;;;;;5051270;28;20205;-65
2021/11/29 07:46:40;;;;;;;73.75;11.68;;;;;;;;;;5051527;28;20666;-65
2021/11/29 07:49:07;;;;;;;76.45;13.13;;;;;;;;;;5050915;28;20236;-65
2021/11/29 07:51:34;;;;;;;70.43;10.20;;;;;;;;;;5051268;28;20221;-65
2021/11/29 07:54:01;;;;;;;71.82;10.80;;;;;;;;;;5051219;28;20205;-65
2021/11/29 07:56:28;;;;;;;68.38;11.27;;;;;;;;;;5051082;28;20228;-66
2021/11/29 07:58:55;;;;;;;74.38;11.43;;;;;;;;;;5049625;28;20233;-65
2021/11/29 08:01:23;;;;;;;70.40;11.40;;;;;;;;;;5051245;28;20213;-66
2021/11/29 08:03:51;;;;;;;72.57;10.98;;;;;;;;;;5051307;28;20557;-66
2021/11/29 08:06:18;;;;;;;72.40;12.18;;;;;;;;;;5051058;28;20223;-66
2021/11/29 08:08:46;;;;;;;78.57;12.98;;;;;;;;;;5050825;28;20226;-65
2021/11/29 08:11:13;;;;;;;69.03;10.50;;;;;;;;;;5050968;28;20214;-65
2021/11/29 08:13:40;;;;;;;68.97;10.35;;;;;;;;;;5051202;28;20220;-66
2021/11/29 08:16:07;;;;;;;67.47;9.20;;;;;;;;;;5051173;28;20650;-65
2021/11/29 08:18:34;;;;;;;68.15;9.95;;;;;;;;;;5050781;28;20233;-66
2021/11/29 08:21:03;;;;;;;69.30;10.48;;;;;;;;;;5051162;28;20206;-64
2021/11/29 08:23:30;;;;;;;72.80;9.65;;;;;;;;;;5050792;28;20206;-65
2021/11/29 08:25:57;;;;;;;66.28;9.07;;;;;;;;;;5051138;28;20216;-65
2021/11/29 08:28:24;;;;;;;71.25;9.82;;;;;;;;;;5056468;28;20221;-65
2021/11/29 08:30:51;;;;;;;69.55;10.55;;;;;;;;;;5074669;28;20213;-65
2021/11/29 08:33:18;;;;;;;66.10;8.52;;;;;;;;;;5074447;28;20613;-65
2021/11/29 08:35:46;;;;;;;67.80;8.90;;;;;;;;;;5074441;28;20204;-66
2021/11/29 08:38:15;;;;;;;71.85;9.88;;;;;;;;;;5073919;28;20231;-65
2021/11/29 08:40:42;;;;;;;68.70;9.88;;;;;;;;;;5074688;28;20215;-66
2021/11/29 08:43:11;;;;;;;68.68;9.65;;;;;;;;;;5074452;28;20550;-65
2021/11/29 08:45:38;;;;;;;67.15;8.82;;;;;;;;;;5074204;28;20590;-66
2021/11/29 08:48:08;;;;;;;69.80;10.45;;;;;;;;;;5073945;28;20610;-66
2021/11/29 08:50:36;;;;;;;70.55;10.52;;;;;;;;;;5074119;28;20205;-66
2021/11/29 08:53:05;;;;;;;69.00;9.48;;;;;;;;;;5073851;28;20217;-66
2021/11/29 08:55:35;;;;;;;69.90;9.15;;;;;;;;;;5074217;28;20227;-65
2021/11/29 08:58:02;;;;;;;69.25;11.00;;;;;;;;;;5073825;28;20204;-66
2021/11/29 09:00:30;;;;;;;70.10;9.23;;;;;;;;;;5072435;28;20573;-65
2021/11/29 09:02:58;;;;;;;66.20;8.80;;;;;;;;;;5073824;28;20213;-65
2021/11/29 09:05:25;;;;;;;68.70;9.02;;;;;;;;;;5073632;28;20204;-66
2021/11/29 09:07:52;;;;;;;68.82;9.23;;;;;;;;;;5073390;28;20292;-65
2021/11/29 09:10:21;;;;;;;67.32;8.70;;;;;;;;;;5073986;28;20201;-65
2021/11/29 09:12:50;;;;;;;72.15;10.00;;;;;;;;;;5073781;28;20310;-65
2021/11/29 09:15:18;;;;;;;67.95;8.90;;;;;;;;;;5073489;28;20691;-65
2021/11/29 09:17:45;;;;;;;70.28;9.15;;;;;;;;;;5073084;28;20212;-64
2021/11/29 09:20:13;;;;;;;67.85;8.15;;;;;;;;;;5073347;28;20217;-68
2021/11/29 09:22:41;;;;;;;64.90;7.97;;;;;;;;;;5073694;28;20298;-65
2021/11/29 09:25:09;;;;;;;68.00;9.43;;;;;;;;;;5073417;28;20212;-65
2021/11/29 09:27:37;;;;;;;66.13;8.82;;;;;;;;;;5073195;28;20205;-65
2021/11/29 09:30:06;;;;;;;67.47;8.30;;;;;;;;;;5073077;28;20774;-65
2021/11/29 09:32:37;;;;;;;63.33;8.00;;;;;;;;;;5071136;28;20221;-64
2021/11/29 09:35:04;;;;;;;65.97;8.40;;;;;;;;;;5073326;28;20220;-65
2021/11/29 09:37:31;;;;;;;65.65;8.30;;;;;;;;;;5072964;28;20280;-66
2021/11/29 09:39:58;;;;;;;66.50;7.97;;;;;;;;;;5073098;28;20599;-65
2021/11/29 09:42:26;;;;;;;66.95;7.70;;;;;;;;;;5072968;28;20207;-65
2021/11/29 09:44:53;;;;;;;63.47;7.70;;;;;;;;;;5073453;28;20201;-66
2021/11/29 09:47:22;;;;;;;65.90;8.15;;;;;;;;;;5072550;28;20208;-65
2021/11/29 09:49:54;;;;;;;63.15;6.60;;;;;;;;;;5073041;28;20229;-65
2021/11/29 09:52:21;;;;;;;65.63;7.03;;;;;;;;;;5072703;28;20274;-65
2021/11/29 09:54:48;;;;;;;67.47;8.05;;;;;;;;;;5072703;28;20295;-64
2021/11/29 09:57:15;;;;;;;67.20;7.68;;;;;;;;;;5072497;28;20690;-66
2021/11/29 09:59:42;;;;;;;64.05;7.20;;;;;;;;;;5071668;28;20231;-64
2021/11/29 10:02:13;;;;;;;66.18;8.30;;;;;;;;;;5072535;28;20686;-65
2021/11/29 10:04:42;;;;;;;63.75;5.93;;;;;;;;;;5072830;28;20259;-66
2021/11/29 10:07:10;;;;;;;62.83;6.32;;;;;;;;;;5071315;28;20247;-65
2021/11/29 10:09:37;;;;;;;62.00;5.97;;;;;;;;;;5072461;28;20739;-66
2021/11/29 10:12:19;;;;;;;66.60;6.88;;;;;;;;;;5072290;28;20211;-65
2021/11/29 10:14:46;;;;;;;63.28;6.20;;;;;;;;;;5072241;28;20201;-65
2021/11/29 10:17:13;;;;;;;66.82;6.90;;;;;;;;;;5072259;28;20201;-66
2021/11/29 10:19:42;;;;;;;62.88;6.10;;;;;;;;;;5072192;28;20229;-65
2021/11/29 10:22:12;;;;;;;63.28;5.50;;;;;;;;;;5072253;28;20208;-65
2021/11/29 10:24:39;;;;;;;64.93;7.00;;;;;;;;;;5072411;28;20205;-66
2021/11/29 10:27:06;;;;;;;64.38;7.05;;;;;;;;;;5072160;28;20208;-66
2021/11/29 10:29:33;;;;;;;64.65;6.18;;;;;;;;;;5071979;28;20716;-65
2021/11/29 10:32:01;;;;;;;66.03;7.10;;;;;;;;;;5072146;28;20208;-66
2021/11/29 10:34:29;;;;;;;62.13;5.50;;;;;;;;;;5072183;28;20208;-66
2021/11/29 10:36:59;;;;;;;62.72;6.70;;;;;;;;;;5072046;28;20240;-66
2021/11/29 10:39:27;;;;;;;61.90;5.20;;;;;;;;;;5071690;28;20225;-66
2021/11/29 10:41:56;;;;;;;61.65;4.80;;;;;;;;;;5072008;28;20211;-66
2021/11/29 10:44:24;;;;;;;63.35;5.30;;;;;;;;;;5071925;28;20216;-66
2021/11/29 10:46:53;;;;;;;62.55;4.90;;;;;;;;;;5071757;28;20710;-65
2021/11/29 10:49:21;;;;;;;62.13;5.03;;;;;;;;;;5071121;28;20225;-66
2021/11/29 10:51:50;;;;;;;63.53;5.50;;;;;;;;;;5071731;28;20295;-66
2021/11/29 10:54:19;;;;;;;63.78;5.85;;;;;;;;;;5072025;28;20723;-66
2021/11/29 10:56:46;;;;;;;61.95;5.32;;;;;;;;;;5071897;28;20229;-65
2021/11/29 10:59:15;;;;;;;62.53;5.40;;;;;;;;;;5071482;28;20238;-66
2021/11/29 11:01:43;;;;;;;66.30;7.00;;;;;;;;;;5071805;28;20309;-66
2021/11/29 11:04:12;;;;;;;65.15;6.25;;;;;;;;;;5071758;28;20201;-65
2021/11/29 11:06:41;;;;;;;64.18;5.57;;;;;;;;;;5071816;28;20578;-66
2021/11/29 11:09:21;;;;;;;63.80;6.35;;;;;;;;;;5071433;28;20228;-65
2021/11/29 11:11:49;;;;;;;64.60;5.55;;;;;;;;;;5071777;28;20204;-65
2021/11/29 11:14:17;;;;;;;61.72;5.45;;;;;;;;;;5071590;28;20700;-66
2021/11/29 11:16:57;;;;;;;63.30;8.13;;;;;;;;;;5071470;28;20579;-65
2021/11/29 11:19:26;;;;;;;62.40;5.70;;;;;;;;;;5071529;28;20234;-66
2021/11/29 11:21:54;;;;;;;62.15;5.82;;;;;;;;;;5072041;28;20199;-66
2021/11/29 11:24:23;;;;;;;64.20;7.53;;;;;;;;;;5071595;28;20211;-65
2021/11/29 11:26:51;;;;;;;63.05;5.90;;;;;;;;;;5071401;28;20699;-66
2021/11/29 11:29:32;;;;;;;63.67;5.60;;;;;;;;;;5071074;28;20228;-66
2021/11/29 11:32:08;;;;;;;63.17;5.68;;;;;;;;;;5071910;28;20703;-65
2021/11/29 11:34:35;;;;;;;65.68;7.13;;;;;;;;;;5071766;28;20224;-65
2021/11/29 11:37:03;;;;;;;64.40;6.20;;;;;;;;;;5071442;28;20212;-65
2021/11/29 11:39:32;;;;;;;63.92;6.32;;;;;;;;;;5071177;28;20643;-66
2021/11/29 11:42:00;;;;;;;63.13;6.20;;;;;;;;;;5071270;28;20225;-65
2021/11/29 11:44:27;;;;;;;63.90;5.82;;;;;;;;;;5071517;28;20198;-65
2021/11/29 11:46:55;;;;;;;65.18;6.55;;;;;;;;;;5071437;28;20592;-66
2021/11/29 11:49:23;;;;;;;62.60;5.90;;;;;;;;;;5071154;28;20233;-66
2021/11/29 11:51:50;;;;;;;64.10;6.87;;;;;;;;;;5071341;28;20528;-66
2021/11/29 11:54:17;;;;;;;64.63;5.87;;;;;;;;;;5071128;28;20479;-65
2021/11/29 11:56:46;;;;;;;61.07;5.70;;;;;;;;;;5071427;28;20451;-66
2021/11/29 11:59:14;;;;;;;62.17;5.80;;;;;;;;;;5070883;28;20477;-66
2021/11/29 12:01:43;;;;;;;62.53;5.80;;;;;;;;;;5072856;28;20573;-66
2021/11/29 12:04:11;;;;;;;63.60;6.27;;;;;;;;;;5075004;28;20446;-66
2021/11/29 12:06:40;;;;;;;61.38;6.13;;;;;;;;;;5075332;28;20448;-66
2021/11/29 12:09:09;;;;;;;67.90;7.38;;;;;;;;;;5074783;28;20229;-66
2021/11/29 12:11:44;;;;;;;63.45;5.65;;;;;;;;;;5075063;28;20320;-66
2021/11/29 12:14:17;;;;;;;63.42;6.30;;;;;;;;;;5074816;28;20230;-66
2021/11/29 12:16:45;;;;;;;63.17;6.55;;;;;;;;;;5074718;28;20204;-66
2021/11/29 12:19:17;;;;;;;68.00;5.70;;;;;;;;;;5074253;28;20224;-66
2021/11/29 12:21:44;;;;;;;69.45;7.32;;;;;;;;;;5074850;28;20205;-66
2021/11/29 12:24:13;;;;;;;65.30;6.45;;;;;;;;;;5074561;28;20201;-66
2021/11/29 12:26:57;;;;;;;62.75;5.90;;;;;;;;;;5074443;28;20259;-66
2021/11/29 12:29:43;;;;;;;65.88;6.70;;;;;;;;;;5074123;28;20235;-66
2021/11/29 12:32:13;;;;;;;62.20;5.45;;;;;;;;;;5074696;28;20205;-66
2021/11/29 12:34:57;;;;;;;62.13;6.55;;;;;;;;;;5074502;28;20229;-66
2021/11/29 12:37:24;;;;;;;62.50;6.22;;;;;;;;;;5074286;28;20205;-66
2021/11/29 12:39:55;;;;;;;63.78;6.05;;;;;;;;;;5074102;28;20737;-65
2021/11/29 12:42:42;;;;;;;62.78;6.40;;;;;;;;;;5074507;28;20247;-66
2021/11/29 12:45:14;;;;;;;65.30;6.50;;;;;;;;;;5074324;28;20216;-65
2021/11/29 12:47:43;;;;;;;65.68;6.75;;;;;;;;;;5074009;28;20209;-66
2021/11/29 12:50:25;;;;;;;62.63;7.22;;;;;;;;;;5074150;28;20243;-66
2021/11/29 12:52:52;;;;;;;62.40;6.55;;;;;;;;;;5073988;28;20215;-66
2021/11/29 12:55:28;;;;;;;62.83;7.00;;;;;;;;;;5073945;28;20208;-66
2021/11/29 12:58:10;;;;;;;64.50;7.50;;;;;;;;;;5073654;28;20200;-65
2021/11/29 13:00:40;;;;;;;65.65;7.40;;;;;;;;;;5073936;28;20216;-65
2021/11/29 13:03:10;;;;;;;66.57;8.20;;;;;;;;;;5073714;28;20215;-65
2021/11/29 13:05:39;;;;;;;65.03;7.20;;;;;;;;;;5073965;28;20584;-66
2021/11/29 13:08:08;;;;;;;64.32;7.60;;;;;;;;;;5073649;28;20220;-66
2021/11/29 13:11:02;;;;;;;62.83;7.05;;;;;;;;;;5073721;28;20296;-65
2021/11/29 13:13:45;;;;;;;65.97;8.77;;;;;;;;;;5073144;28;20221;-66
2021/11/29 13:16:14;;;;;;;68.85;8.02;;;;;;;;;;5071901;28;20223;-66
2021/11/29 13:18:59;;;;;;;65.07;8.63;;;;;;;;;;5073351;28;20595;-66
2021/11/29 13:21:27;;;;;;;64.25;7.63;;;;;;;;;;5073688;28;20585;-66
2021/11/29 13:23:56;;;;;;;63.42;6.88;;;;;;;;;;5073449;28;20205;-65
2021/11/29 13:26:24;;;;;;;64.40;7.88;;;;;;;;;;5073647;28;20204;-66
2021/11/29 13:28:55;;;;;;;64.30;7.38;;;;;;;;;;5073340;28;20220;-66
2021/11/29 13:31:27;;;;;;;66.00;8.02;;;;;;;;;;5073509;28;20205;-66
2021/11/29 13:33:54;;;;;;;64.15;7.85;;;;;;;;;;5073195;28;20220;-65
2021/11/29 13:36:23;;;;;;;65.07;7.38;;;;;;;;;;5073114;28;20207;-66
2021/11/29 13:38:51;;;;;;;65.63;7.10;;;;;;;;;;5073019;28;20224;-65
2021/11/29 13:41:19;;;;;;;66.53;8.18;;;;;;;;;;5073279;28;20207;-66
2021/11/29 13:43:46;;;;;;;63.65;7.80;;;;;;;;;;5073096;28;20205;-65
2021/11/29 13:46:14;;;;;;;68.18;8.30;;;;;;;;;;5073083;28;20204;-66
2021/11/29 13:48:42;;;;;;;64.72;7.82;;;;;;;;;;5072661;28;20312;-66
2021/11/29 13:51:10;;;;;;;64.32;7.25;;;;;;;;;;5073241;28;20208;-65
2021/11/29 13:53:42;;;;;;;67.32;8.00;;;;;;;;;;5073029;28;20603;-65
2021/11/29 13:56:11;;;;;;;63.47;6.80;;;;;;;;;;5072949;28;20205;-66
2021/11/29 13:58:38;;;;;;;64.70;7.40;;;;;;;;;;5072572;28;20229;-66
2021/11/29 14:01:10;;;;;;;65.78;8.40;;;;;;;;;;5072591;28;20307;-66
2021/11/29 14:03:44;;;;;;;68.05;7.95;;;;;;;;;;5072578;28;20295;-66
2021/11/29 14:06:11;;;;;;;63.70;7.47;;;;;;;;;;5072557;28;20227;-65
2021/11/29 14:08:40;;;;;;;68.15;6.95;;;;;;;;;;5072390;28;20231;-66
2021/11/29 14:11:10;;;;;;;71.22;7.28;;;;;;;;;;5072563;28;20201;-66
2021/11/29 14:13:40;;;;;;;65.63;7.97;;;;;;;;;;5072545;28;20235;-66
2021/11/29 14:16:09;;;;;;;64.28;6.75;;;;;;;;;;5072592;28;20575;-65
2021/11/29 14:18:38;;;;;;;68.35;6.70;;;;;;;;;;5072200;28;20298;-66
2021/11/29 14:21:06;;;;;;;65.13;6.30;;;;;;;;;;5072363;28;20236;-65
2021/11/29 14:23:38;;;;;;;65.55;6.53;;;;;;;;;;5071634;28;20205;-66
2021/11/29 14:26:08;;;;;;;61.78;6.05;;;;;;;;;;5072266;28;20607;-65
2021/11/29 14:28:36;;;;;;;64.55;6.07;;;;;;;;;;5071805;28;20228;-66
2021/11/29 14:31:03;;;;;;;62.80;6.95;;;;;;;;;;5072345;28;20262;-65
2021/11/29 14:33:34;;;;;;;62.28;6.45;;;;;;;;;;5072194;28;20209;-66
2021/11/29 14:36:03;;;;;;;65.22;5.80;;;;;;;;;;5072144;28;20595;-66